Mason Valley Wildlife Refuge, Nevada Weather observations

Data are for 10 minute period ending at time listed.
 Day   Time   Solar   Ave.   Ave.  Ave.  Vector  Max.   Baro.   Total    
  of    of     Rad.   Air    Rel.  Wind   Wind   Wind  Press.  Precip.   
Year   Day            Temp.  Hum.  Speed  Dir.   Gust                    
2014   (PST)  Kw/m2    F      %     mph   deg.    mph    mb.     in.     
-------------------------------------------------------------------------
 244    3:50   0.00   50.1    57    4.4   178     5.8   868.2    0.00 
 244    4:00   0.00   48.7    63    4.9   208     7.4   868.1    0.00 
 244    4:10   0.00   51.9    55    1.7   205     4.1   868.1    0.00 
 244    4:20   0.00   50.6    57    2.0    49     3.7   868.2    0.00 
 244    4:30   0.00   49.4    57    0.9    77     3.0   868.2    0.00 
 244    4:40   0.00   47.9    60    1.8    80     3.7   868.3    0.00 
 244    4:50   0.00   46.9    62    2.7   164     3.6   868.3    0.00 
 244    5:00   0.00   47.0    60    3.2   142     5.3   868.4    0.00 
 244    5:10   0.00   46.0    63    2.1   150     4.1   868.5    0.00 
 244    5:20   0.00   46.3    63    2.3   163     4.6   868.5    0.00 
 244    5:30   0.01   46.7    62    1.5   190     3.7   868.6    0.00 
 244    5:40   0.01   47.9    61    1.9   190     2.7   868.7    0.00 
 244    5:50   0.03   48.2    60    1.3   130     2.9   868.8    0.00 
 244    6:00   0.05   49.0    56    1.5   141     5.0   869.0    0.00 
 244    6:10   0.07   48.8    59    2.2   354     5.1   869.1    0.00 
 244    6:20   0.10   50.3    58    2.0   339     5.7   869.2    0.00 
 244    6:30   0.12   51.8    60    0.9   355     3.4   869.3    0.00 
 244    6:40   0.15   55.3    53    0.2   143     1.9   869.4    0.00 
 244    6:50   0.18   57.1    48    1.6   157     2.4   869.4    0.00 
 244    7:00   0.22   58.1    46    1.7   173     2.9   869.5    0.00 
 244    7:10   0.25   60.5    44    0.4   165     1.8   869.5    0.00 
 244    7:20   0.28   62.2    42    0.9   207     1.8   869.6    0.00 
 244    7:30   0.32   63.0    42    1.3   236     2.6   869.7    0.00 
 244    7:40   0.35   64.8    40    1.4   232     3.2   869.7    0.00 
 244    7:50   0.39   65.1    41    2.3   237     4.3   869.7    0.00 
 244    8:00   0.42   66.2    40    2.2   224     3.3   869.6    0.00 
 244    8:10   0.46   68.3    37    2.2   176     3.9   869.6    0.00 
 244    8:20   0.49   70.7    28    2.5   165     4.9   869.5    0.00 
 244    8:30   0.52   71.8    27    2.5   192     5.1   869.4    0.00 
 244    8:40   0.55   72.7    26    2.3   200     5.0   869.5    0.00 
 244    8:50   0.58   72.9    25    2.4   210     6.8   869.4    0.00 
 244    9:00   0.61   73.8    24    2.1   172     4.7   869.3    0.00 
 244    9:10   0.64   73.9    24    2.3   228     7.1   869.2    0.00 
 244    9:20   0.67   74.4    22    2.2   222     4.7   869.2    0.00 
 244    9:30   0.70   75.8    21    1.9   227     5.4   869.2    0.00 
 244    9:40   0.72   75.3    22    2.8   276     5.3   869.2    0.00 
 244    9:50   0.75   75.2    22    3.1   281     6.5   869.1    0.00 
 244   10:00   0.77   76.6    22    2.1   206     4.6   869.0    0.00 
 244   10:10   0.79   77.4    20    3.6   292     7.2   868.8    0.00 
 244   10:20   0.81   77.5    20    3.7   339     6.9   868.8    0.00 
 244   10:30   0.83   77.4    20    2.8     3     6.7   868.7    0.00 
 244   10:40   0.85   78.4    19    4.2     1     8.9   868.6    0.00 
 244   10:50   0.87   78.2    19    3.1    67     8.7   868.6    0.00 
 244   11:00   0.88   78.6    19    4.0     8     7.3   868.6    0.00 
 244   11:10   0.89   79.4    18    4.3   341     7.2   868.4    0.00 
 244   11:20   0.90   79.2    18    3.7     4     8.8   868.4    0.00 
 244   11:30   0.91   80.0    18    3.8    25     9.1   868.3    0.00 
 244   11:40   0.92   80.3    18    3.8    62     9.3   868.2    0.00 
 244   11:50   0.93   80.5    18    4.3    82     8.8   868.0    0.00 
 244   12:00   0.93   80.8    17    2.4   105     5.8   868.0    0.00 
 244   12:10   0.93   81.4    17    4.2   285     8.0   867.8    0.00 
 244   12:20   0.93   82.0    17    2.5   272     5.6   867.7    0.00 
 244   12:30   0.93   81.7    17    3.8    14    11.7   867.6    0.00 
 244   12:40   0.92   83.1    17    3.8    23     6.9   867.6    0.00 
 244   12:50   0.92   83.1    16    4.6   127     8.6   867.6    0.00 
 244   13:00   0.91   83.4    16    3.7    21     6.9   867.4    0.00 
 244   13:10   0.90   83.5    16    3.6     3     9.1   867.3    0.00 
 244   13:20   0.89   83.9    16    4.7    10     9.2   867.3    0.00 
 244   13:30   0.88   83.6    16    5.3     1     8.6   867.2    0.00 
 244   13:40   0.86   83.9    15    5.2    20    11.2   867.1    0.00 
 244   13:50   0.84   84.6    15    3.3   328     5.6   867.0    0.00 
 244   14:00   0.83   85.9    15    3.5    55    11.8   866.8    0.00 
 244   14:10   0.81   85.1    14    3.9   352    10.6   866.6    0.00 
 244   14:20   0.79   85.5    14    6.0    58    13.1   866.5    0.00 
 244   14:30   0.76   86.0    15    5.9    21    11.8   866.4    0.00 
 244   14:40   0.74   86.0    14    4.9    45    11.5   866.3    0.00 
 244   14:50   0.71   85.9    15    6.9    37    12.4   866.2    0.00 
 244   15:00   0.69   85.8    14    6.2    36    10.9   866.1    0.00 
 244   15:10   0.66   86.1    14    8.6    56    14.7   865.9    0.00 
 244   15:20   0.63   86.2    14    8.2    56    13.6   865.9    0.00 
 244   15:30   0.60   86.6    14    8.5    62    13.4   865.9    0.00 
 244   15:40   0.57   86.0    14    8.3    56    12.9   865.9    0.00 
 244   15:50   0.53   86.1    14    7.8    57    12.6   865.8    0.00 
 244   16:00   0.50   86.1    14    7.7    47    14.6   865.8    0.00 
 244   16:10   0.47   86.2    14    8.0    64    12.8   865.6    0.00 
 244   16:20   0.43   86.0    14    8.3    55    13.6   865.6    0.00 
 244   16:30   0.40   85.9    14    7.3    54    12.4   865.6    0.00 
 244   16:40   0.36   85.7    14    8.7    64    13.4   865.6    0.00 
 244   16:50   0.32   85.5    14    8.3    52    12.3   865.5    0.00 
 244   17:00   0.29   85.3    14    6.8    60     9.8   865.5    0.00 
 244   17:10   0.25   84.8    15    6.6    55    11.2   865.5    0.00 
 244   17:20   0.22   84.3    15    7.5    50    12.1   865.4    0.00 
 244   17:30   0.18   83.8    16    6.6    56    10.2   865.3    0.00 
 244   17:40   0.15   83.1    16    6.8    63    10.2   865.3    0.00 
 244   17:50   0.12   82.3    18    5.0    58     8.4   865.3    0.00 
 244   18:00   0.08   81.2    18    5.8    60     9.2   865.3    0.00 
 244   18:10   0.04   80.1    19    4.9    63     6.8   865.2    0.00 
 244   18:20   0.01   78.9    19    3.8    69     4.7   865.1    0.00 
 244   18:30   0.01   77.5    20    3.5    57     4.2   865.2    0.00 
 244   18:40   0.00   75.8    22    2.4    69     3.3   865.1    0.00 
 244   18:50   0.00   73.9    22    1.6    64     2.3   865.2    0.00 
 244   19:00   0.00   73.5    22    1.1    84     2.2   865.4    0.00 
 244   19:10   0.00   72.0    23    0.5    91     1.2   865.6    0.00 
 244   19:20   0.00   71.9    23    0.4   199     1.5   865.8    0.00 
 244   19:30   0.00   71.5    23    1.6   206     2.1   865.9    0.00 
 244   19:40   0.00   71.0    27    1.6   232     2.1   866.1    0.00 
 244   19:50   0.00   68.5    30    1.8   280     2.5   866.2    0.00 
 244   20:00   0.00   67.3    32    1.6   231     3.7   866.4    0.00 
 244   20:10   0.00   64.0    38    2.5   217     2.9   866.5    0.00 
 244   20:20   0.00   63.3    43    2.1   284     3.2   866.7    0.00 
 244   20:30   0.00   60.5    48    1.6   232     3.3   866.7    0.00 
 244   20:40   0.00   61.7    44    1.6   266     2.3   866.8    0.00 
 244   20:50   0.00   61.4    46    3.0   250     3.9   866.8    0.00 
 244   21:00   0.00   60.7    46    2.6   279     4.0   866.7    0.00 
 244   21:10   0.00   60.7    46    1.8   250     2.8   866.9    0.00 
 244   21:20   0.00   60.7    45    1.9   259     3.3   866.9    0.00 
 244   21:30   0.00   59.2    48    1.2   339     3.9   866.8    0.00 
 244   21:40   0.00   59.2    45    0.7   274     1.5   866.7    0.00 
 244   21:50   0.00   59.3    45    1.5   243     3.8   866.8    0.00 
 244   22:00   0.00   58.7    48    1.8   196     2.3   866.8    0.00 
 244   22:10   0.00   57.5    51    2.3   266     4.4   866.8    0.00 
 244   22:20   0.00   61.4    35    4.4   275     5.8   866.7    0.00 
 244   22:30   0.00   65.1    29    4.3   282     5.6   866.7    0.00 
 244   22:40   0.00   64.1    32    4.0   270     5.1   866.7    0.00 
 244   22:50   0.00   63.5    32    4.2   274     5.7   866.6    0.00 
 244   23:00   0.00   63.0    33    4.0   272     5.3   866.7    0.00 
 244   23:10   0.00   62.4    35    4.4   264     6.0   866.7    0.00 
 244   23:20   0.00   58.9    43    1.9   208     3.4   866.7    0.00 
 244   23:30   0.00   59.1    42    2.1   174     3.1   866.7    0.00 
 244   23:40   0.00   59.0    40    1.6   152     3.5   866.7    0.00 
 244   23:50   0.00   58.7    37    2.5   130     6.1   866.8    0.00 
 245    0:00   0.00   56.0    43    4.5   175     6.2   866.7    0.00 
 245    0:10   0.00   55.2    43    3.6   158     5.1   866.8    0.00 
 245    0:20   0.00   53.7    51    4.0   194     5.6   866.8    0.00 
 245    0:30   0.00   54.9    48    2.9   182     5.6   866.8    0.00 
 245    0:40   0.00   55.9    47    2.6   205     4.2   866.7    0.00 
 245    0:50   0.00   56.1    50    1.5   224     2.3   866.6    0.00 
 245    1:00   0.00   56.0    48    2.7   225     5.3   866.6    0.00 
 245    1:10   0.00   55.7    48    3.5    47     5.8   866.7    0.00 
 245    1:20   0.00   55.0    48    2.2    26     4.5   866.8    0.00 
 245    1:30   0.00   54.0    51    1.7    62     2.9   866.7    0.00 
 245    1:40   0.00   52.7    52    0.2    87     1.5   866.7    0.00 
 245    1:50   0.00   51.7    53    0.7    87     1.7   866.7    0.00 
 245    2:00   0.00   52.1    50    0.2    87     0.9   866.8    0.00 
 245    2:10   0.00   52.4    53    1.0    87     1.9   866.8    0.00 
 245    2:20   0.00   50.7    67    0.3    87     1.2   866.7    0.00 
 245    2:30   0.00   50.1    66    0.6   150     2.6   866.7    0.00 
 245    2:40   0.00   48.6    60    2.3   154     3.2   866.7    0.00 
 245    2:50   0.00   47.9    58    1.9   163     2.7   866.7    0.00 
 245    3:00   0.00   48.3    60    2.5   176     3.4   866.7    0.00 
 245    3:10   0.00   48.3    63    2.5   168     3.4   866.6    0.00 
 245    3:20   0.00   48.6    60    2.7   161     4.2   866.5    0.00 
 245    3:30   0.00   48.3    60    0.9   164     2.4   866.5    0.00 
 245    3:40   0.00   49.6    58    0.7   176     1.2   866.5    0.00 

Return to Mason Valley Wildlife Refuge graphs page.


Western Regional Climate Center,wrcc@dri.edu